EDTM weather

Mengen-Hohentengen Airport
Mengen, Baden-W├╝rttemberg, Germany

Public forecast

Using degrees Celsius for public forecast. Weather courtesy of forecast.io.

METAR (pilot weather report)

Closest report is Friedrichshafen Airport, 23.6 nm (43.8 km) SSE. Retrieved 2019/09/16 13:20 UTC (12 minutes ago):

EDNY 161320Z VRB03KT CAVOK 26/18 Q1019

TAF (pilot weather forecast)

Closest forecast is Friedrichshafen Airport, 23.6 nm (43.8 km) SSE. Retrieved 2019/09/16 12:27 UTC (1 hour ago):

TAF EDNY 161100Z 1612/1712 24006KT CAVOK BECMG 1617/1619 03003KT BECMG 1709/1711 29005KT